Upstream stations:
Downstream station:
SHEF ID: BRIO2 Canadian River at Bridgeport, OK
STATION TYPE:
Regulating: Stage = 15.00, Flow = 8579
STAGE RIV-FLOW BAT-LOAD
ft cfs volt
Ccp-Rev Ccp-Rev Ccp-Rev
(US/Central)
03/26 00:00 11.27 846 12.49
03/26 01:00 11.26 840 12.49
03/26 02:00 11.26 840 12.49
03/26 03:00 11.25 834 12.41
03/26 04:00 11.28 852 12.41
03/26 05:00 11.29 859 12.41
03/26 06:00 11.26 840 12.41
03/26 07:00 11.23 821 12.41
03/26 08:00 11.24 827 12.49
03/26 09:00 11.21 809 13.21
03/26 10:00 11.21 809 13.05
03/26 11:00 11.22 815 12.97
03/26 12:00 11.22 815 12.97
03/26 13:00 11.23 821 12.89
03/26 14:00 11.22 815 12.89
03/26 15:00 11.22 815 12.81
03/26 16:00 11.23 821 12.81
03/26 17:00 11.26 840 12.81
03/26 18:00 11.24 827 12.73
03/26 19:00 11.22 815 12.73
03/26 20:00 11.26 840 12.65
03/26 21:00 11.25 834 12.65
03/26 22:00 11.22 815 12.65
03/26 23:00 ---- ---- ----